Pike, Arkansas
Current Conditions -  °F | °C
As of 1:56 PM on Wednesday 28 Jan 2015 (Local Time) from KADF Reporting Station
Clear Clear  
Wind Chill: 71°   Ceiling: Unl
Heat Index: 71°   Visibility: 10mi
Dew Point: 47°   Wind: 9mph
Humidity: 42%   Direction: 170°S
Pressure: 30.1"   Gusts: NA
Location:  34.0586°N, 93.5318°W
Report Text: KADF 281956Z AUTO 17008KT 10SM CLR 22/08 A3010 RMK AO2 T02160083 SLP206
Loading
Personal Weather Stations






























Interactive Weather Map New forecast layout! Learn more

10-Day Weather Forecast

Advertisements
Track Severe Weather on mobile